createdAt,value
2019-05-28T00:02:08.683Z,27.60
2019-05-28T00:04:36.531Z,26.83
2019-05-28T00:07:04.439Z,24.67
2019-05-28T00:09:32.307Z,26.17
2019-05-28T00:12:00.437Z,27.33
2019-05-28T00:14:28.472Z,25.33
2019-05-28T00:16:56.318Z,25.60
2019-05-28T00:19:24.149Z,26.37
2019-05-28T00:21:52.003Z,26.63
2019-05-28T00:24:19.921Z,25.97
2019-05-28T00:26:47.807Z,25.40
2019-05-28T00:29:16.177Z,27.30
2019-05-28T00:31:44.191Z,27.67
2019-05-28T00:34:12.036Z,27.80
2019-05-28T00:36:40.017Z,29.80
2019-05-28T00:39:08.089Z,30.37
2019-05-28T00:41:36.106Z,26.87
2019-05-28T00:44:05.333Z,27.90
2019-05-28T00:46:33.226Z,26.30
2019-05-28T00:49:01.047Z,24.90
2019-05-28T00:51:29.354Z,24.73
2019-05-28T00:53:57.345Z,25.50
2019-05-28T00:56:25.496Z,22.70
2019-05-28T00:58:53.532Z,24.50
2019-05-28T01:01:21.771Z,25.37
2019-05-28T01:03:49.644Z,24.40
2019-05-28T01:06:17.485Z,25.13
2019-05-28T01:08:45.336Z,27.03
2019-05-28T01:11:13.236Z,25.47
2019-05-28T01:13:41.142Z,25.57
2019-05-28T01:16:08.940Z,28.10
2019-05-28T01:18:36.783Z,28.50
2019-05-28T01:21:04.617Z,27.07
2019-05-28T01:23:32.449Z,27.87
2019-05-28T01:26:00.334Z,27.50
2019-05-28T01:28:28.166Z,25.97
2019-05-28T01:31:00.645Z,27.67
2019-05-28T01:33:26.303Z,27.17
2019-05-28T01:35:54.141Z,28.40
2019-05-28T01:38:22.003Z,26.97
2019-05-28T01:40:49.832Z,25.20
2019-05-28T01:43:17.707Z,27.17
2019-05-28T01:45:45.535Z,26.30
2019-05-28T01:48:13.368Z,25.97
2019-05-28T01:50:41.231Z,27.07
2019-05-28T01:53:09.216Z,27.03
2019-05-28T01:55:37.023Z,27.20
2019-05-28T01:58:04.938Z,27.40
2019-05-28T02:00:32.833Z,27.07
2019-05-28T02:03:00.709Z,24.90
2019-05-28T02:05:28.550Z,26.40
2019-05-28T02:07:56.410Z,27.37
2019-05-28T02:10:25.491Z,25.83
2019-05-28T02:12:53.343Z,26.93
2019-05-28T02:15:23.166Z,27.03
2019-05-28T02:17:51.025Z,26.77
2019-05-28T02:20:18.995Z,27.60
2019-05-28T02:22:46.796Z,28.00
2019-05-28T02:25:15.157Z,27.80
2019-05-28T02:27:43.030Z,28.77
2019-05-28T02:30:11.629Z,28.57
2019-05-28T02:32:39.441Z,28.13
2019-05-28T02:35:08.570Z,27.70
2019-05-28T02:37:36.400Z,28.10
2019-05-28T02:40:04.983Z,27.30
2019-05-28T02:42:32.742Z,27.00
2019-05-28T02:45:00.660Z,27.77
2019-05-28T02:47:28.503Z,26.07
2019-05-28T02:49:56.327Z,25.30
2019-05-28T02:52:24.826Z,25.23
2019-05-28T02:54:52.659Z,26.70
2019-05-28T02:57:22.820Z,27.57
2019-05-28T02:59:52.442Z,26.30
2019-05-28T03:02:23.709Z,28.20
2019-05-28T03:04:54.932Z,25.60
2019-05-28T03:07:23.888Z,25.57
2019-05-28T03:09:55.480Z,23.93
2019-05-28T03:12:23.331Z,26.03
2019-05-28T03:14:51.181Z,25.57
2019-05-28T03:17:19.413Z,25.07
2019-05-28T03:19:47.608Z,26.50
2019-05-28T03:22:18.332Z,24.17
2019-05-28T03:24:48.152Z,27.70
2019-05-28T03:27:16.076Z,26.80
2019-05-28T03:29:43.888Z,25.47
2019-05-28T03:32:11.741Z,27.53
2019-05-28T03:34:42.047Z,25.50
2019-05-28T03:37:10.972Z,24.93
2019-05-28T03:39:39.320Z,24.70
2019-05-28T03:42:07.137Z,25.37
2019-05-28T03:44:35.000Z,24.80
2019-05-28T03:47:02.854Z,26.60
2019-05-28T03:49:31.805Z,26.40
2019-05-28T03:51:59.639Z,22.23
2019-05-28T03:54:27.525Z,22.83
2019-05-28T03:56:55.359Z,24.97
2019-05-28T03:59:23.191Z,25.27
2019-05-28T04:01:51.034Z,25.60
2019-05-28T04:04:18.902Z,25.77
2019-05-28T04:06:46.641Z,28.30
2019-05-28T04:09:14.477Z,28.90
2019-05-28T04:11:45.078Z,28.17
2019-05-28T04:14:12.057Z,27.87
2019-05-28T04:16:40.056Z,29.10
2019-05-28T04:19:07.881Z,28.80
2019-05-28T04:21:35.739Z,28.10
2019-05-28T04:24:04.018Z,30.37
2019-05-28T04:26:31.889Z,30.27
2019-05-28T04:28:59.739Z,27.63
2019-05-28T04:31:27.578Z,29.43
2019-05-28T04:33:58.194Z,28.53
2019-05-28T04:36:25.112Z,29.47
2019-05-28T04:38:52.924Z,32.43
2019-05-28T04:41:20.838Z,30.50
2019-05-28T04:43:48.717Z,31.80
2019-05-28T04:46:16.557Z,28.93
2019-05-28T04:48:44.433Z,27.53
2019-05-28T04:51:12.415Z,29.23
2019-05-28T04:53:40.295Z,28.07
2019-05-28T04:56:08.153Z,25.87
2019-05-28T04:58:35.990Z,26.57
2019-05-28T05:01:03.883Z,25.03
2019-05-28T05:03:31.747Z,26.10
2019-05-28T05:05:59.591Z,25.93
2019-05-28T05:08:27.531Z,25.10
2019-05-28T05:10:55.357Z,25.67
2019-05-28T05:13:23.272Z,27.07
2019-05-28T05:15:52.054Z,25.73
2019-05-28T05:18:19.938Z,26.10
2019-05-28T05:20:47.741Z,27.17
2019-05-28T05:23:15.635Z,25.30
2019-05-28T05:25:43.485Z,25.50
2019-05-28T05:28:11.361Z,27.00
2019-05-28T05:30:39.218Z,26.90
2019-05-28T05:33:19.837Z,26.03
2019-05-28T05:35:37.934Z,24.13
2019-05-28T05:38:05.804Z,27.80
2019-05-28T05:40:33.784Z,26.67
2019-05-28T05:43:01.649Z,26.60
2019-05-28T05:45:29.499Z,26.27
2019-05-28T05:47:57.618Z,25.70
2019-05-28T05:50:25.518Z,27.97
2019-05-28T05:52:53.357Z,28.20
2019-05-28T05:55:21.216Z,25.10
2019-05-28T05:57:49.077Z,28.97
2019-05-28T06:00:17.557Z,30.43
2019-05-28T06:02:45.402Z,29.90
2019-05-28T06:05:13.459Z,31.13
2019-05-28T06:07:41.412Z,25.90
2019-05-28T06:10:09.273Z,24.87
2019-05-28T06:12:37.263Z,25.80
2019-05-28T06:15:06.341Z,26.30
2019-05-28T06:17:34.316Z,23.73
2019-05-28T06:20:02.268Z,25.53
2019-05-28T06:22:30.233Z,27.63
2019-05-28T06:24:58.097Z,29.67
2019-05-28T06:27:26.003Z,28.97
2019-05-28T06:29:53.868Z,29.13
2019-05-28T06:32:21.732Z,30.77
2019-05-28T06:34:49.594Z,29.27
2019-05-28T06:37:17.642Z,33.27
2019-05-28T06:39:45.447Z,26.87
2019-05-28T06:42:13.305Z,28.80
2019-05-28T06:44:41.195Z,27.60
2019-05-28T06:47:09.013Z,27.90
2019-05-28T06:49:36.928Z,24.97
2019-05-28T06:52:05.079Z,26.70
2019-05-28T06:54:32.947Z,27.37
2019-05-28T06:57:00.818Z,24.93
2019-05-28T06:59:28.654Z,27.20
2019-05-28T07:01:56.558Z,25.60
2019-05-28T07:04:32.779Z,27.10
2019-05-28T07:06:54.162Z,24.63
2019-05-28T07:09:22.117Z,22.10
2019-05-28T07:11:49.968Z,22.27
2019-05-28T07:14:17.874Z,22.00
2019-05-28T07:16:53.174Z,20.57
2019-05-28T07:19:24.438Z,22.60
2019-05-28T07:21:46.568Z,20.10
2019-05-28T07:24:14.453Z,21.20
2019-05-28T07:26:42.389Z,22.63
2019-05-28T07:29:11.474Z,21.60
2019-05-28T07:31:39.341Z,22.67
2019-05-28T07:34:07.162Z,19.50
2019-05-28T07:36:35.005Z,20.13
2019-05-28T07:39:04.305Z,19.10
2019-05-28T07:41:32.455Z,19.10
2019-05-28T07:44:00.306Z,17.80
2019-05-28T07:46:28.327Z,18.37
2019-05-28T07:48:56.176Z,18.80
2019-05-28T07:51:24.142Z,20.00
2019-05-28T07:53:51.992Z,20.93
2019-05-28T07:56:19.888Z,18.63
2019-05-28T07:58:47.844Z,16.70
2019-05-28T08:01:15.709Z,17.10
2019-05-28T08:03:43.569Z,19.00
2019-05-28T08:06:11.552Z,19.23
2019-05-28T08:08:39.541Z,21.30
2019-05-28T08:11:07.413Z,20.37
2019-05-28T08:13:40.699Z,19.57
2019-05-28T08:16:18.256Z,20.47
2019-05-28T08:18:36.161Z,18.40
2019-05-28T08:21:05.134Z,18.30
2019-05-28T08:23:33.029Z,18.00
2019-05-28T08:26:01.927Z,16.83
2019-05-28T08:28:30.255Z,20.20
2019-05-28T08:31:14.139Z,20.37
2019-05-28T08:33:27.976Z,17.77
2019-05-28T08:35:55.993Z,18.80
2019-05-28T08:38:23.966Z,17.23
2019-05-28T08:40:51.857Z,17.13
2019-05-28T08:43:19.730Z,15.23
2019-05-28T08:45:48.756Z,15.00
2019-05-28T08:48:16.546Z,13.20
2019-05-28T08:50:44.473Z,14.07
2019-05-28T08:53:12.491Z,13.93
2019-05-28T08:55:40.462Z,13.93
2019-05-28T08:58:08.424Z,14.70
2019-05-28T09:00:40.787Z,15.40
2019-05-28T09:03:09.424Z,14.00
2019-05-28T09:05:37.254Z,14.30
2019-05-28T09:08:05.243Z,13.20
2019-05-28T09:10:34.348Z,13.50
2019-05-28T09:13:03.349Z,13.53
2019-05-28T09:15:31.249Z,13.50
2019-05-28T09:17:59.088Z,13.70
2019-05-28T09:20:26.940Z,12.67
2019-05-28T09:22:54.908Z,13.73
2019-05-28T09:25:22.869Z,12.57
2019-05-28T09:27:50.906Z,12.77
2019-05-28T09:30:19.070Z,14.60
2019-05-28T09:32:46.919Z,14.53
2019-05-28T09:35:15.020Z,13.20
2019-05-28T09:37:44.043Z,15.33
2019-05-28T09:40:12.164Z,15.90
2019-05-28T09:42:40.113Z,16.20
2019-05-28T09:45:22.016Z,12.57
2019-05-28T09:47:38.652Z,12.30
2019-05-28T09:50:27.045Z,11.43
2019-05-28T09:52:52.999Z,10.33
2019-05-28T09:55:08.793Z,10.37
2019-05-28T09:57:46.978Z,10.43
2019-05-28T10:00:07.678Z,11.20
2019-05-28T10:02:35.740Z,10.23
2019-05-28T10:05:04.571Z,10.50
2019-05-28T10:07:32.403Z,10.47
2019-05-28T10:10:00.268Z,10.90
2019-05-28T10:12:28.239Z,11.03
2019-05-28T10:14:56.123Z,9.20
2019-05-28T10:17:23.986Z,8.90
2019-05-28T10:19:51.883Z,8.20
2019-05-28T10:22:19.811Z,10.20
2019-05-28T10:24:47.639Z,10.40
2019-05-28T10:27:15.515Z,10.30
2019-05-28T10:29:43.407Z,9.93
2019-05-28T10:32:11.362Z,9.87
2019-05-28T10:34:39.241Z,10.07
2019-05-28T10:37:07.187Z,9.00
2019-05-28T10:39:35.078Z,10.40
2019-05-28T10:42:02.994Z,10.57
2019-05-28T10:44:30.911Z,10.07
2019-05-28T10:46:58.821Z,8.93
2019-05-28T10:49:26.651Z,8.50
2019-05-28T10:51:54.601Z,9.53
2019-05-28T10:54:22.536Z,11.53
2019-05-28T10:56:50.422Z,8.93
2019-05-28T10:59:18.348Z,8.63
2019-05-28T11:01:46.328Z,9.87
2019-05-28T11:04:14.162Z,10.23
2019-05-28T11:06:51.799Z,8.90
2019-05-28T11:09:12.661Z,9.53
2019-05-28T11:11:40.547Z,8.37
2019-05-28T11:14:08.496Z,9.50
2019-05-28T11:16:36.431Z,8.67
2019-05-28T11:19:04.541Z,8.07
2019-05-28T11:21:32.685Z,7.37
2019-05-28T11:24:00.546Z,7.10
2019-05-28T11:26:28.430Z,8.77
2019-05-28T11:28:56.387Z,8.40
2019-05-28T11:31:24.291Z,8.10
2019-05-28T11:33:52.232Z,8.20
2019-05-28T11:36:20.158Z,8.97
2019-05-28T11:38:48.021Z,9.17
2019-05-28T11:41:15.987Z,7.93
2019-05-28T11:43:43.886Z,9.20
2019-05-28T11:46:11.736Z,8.13
2019-05-28T11:48:39.590Z,9.53
2019-05-28T11:51:07.423Z,8.50
2019-05-28T11:53:36.985Z,9.40
2019-05-28T11:56:05.108Z,9.00
2019-05-28T11:58:32.987Z,9.80
2019-05-28T12:01:00.872Z,8.73
2019-05-28T12:03:28.739Z,9.57
2019-05-28T12:05:56.656Z,9.37
2019-05-28T12:08:24.690Z,8.83
2019-05-28T12:10:52.597Z,7.93
2019-05-28T12:13:20.557Z,7.60
2019-05-28T12:15:48.530Z,8.50
2019-05-28T12:18:16.443Z,7.37
2019-05-28T12:20:44.275Z,7.40
2019-05-28T12:23:12.425Z,6.47
2019-05-28T12:25:40.426Z,6.40
2019-05-28T12:28:08.335Z,6.20
2019-05-28T12:30:36.180Z,6.40
2019-05-28T12:33:04.100Z,7.43
2019-05-28T12:35:31.965Z,7.40
2019-05-28T12:37:59.808Z,6.87
2019-05-28T12:40:27.675Z,5.77
2019-05-28T12:42:55.542Z,4.40
2019-05-28T12:45:34.851Z,4.70
2019-05-28T12:48:09.912Z,5.30
2019-05-28T12:50:23.921Z,5.30
2019-05-28T12:52:52.880Z,5.17
2019-05-28T12:55:22.318Z,6.30
2019-05-28T12:57:50.241Z,6.10
2019-05-28T13:00:20.276Z,6.93
2019-05-28T13:02:48.091Z,6.27
2019-05-28T13:05:18.873Z,6.30
2019-05-28T13:08:05.682Z,5.67
2019-05-28T13:10:16.990Z,3.70
2019-05-28T13:12:44.792Z,2.77
2019-05-28T13:15:13.132Z,2.70
2019-05-28T13:17:40.955Z,3.40
2019-05-28T13:20:11.398Z,2.73
2019-05-28T13:22:39.524Z,2.50
2019-05-28T13:25:07.812Z,2.77
2019-05-28T13:27:35.685Z,2.93
2019-05-28T13:30:04.638Z,4.20
2019-05-28T13:32:32.692Z,4.27
2019-05-28T13:35:00.990Z,4.83
2019-05-28T13:37:29.097Z,3.80
2019-05-28T13:39:58.059Z,4.13
2019-05-28T13:42:25.896Z,3.37
2019-05-28T13:44:53.803Z,2.77
2019-05-28T13:47:33.187Z,2.60
2019-05-28T13:49:51.487Z,2.30
2019-05-28T13:52:19.328Z,2.20
2019-05-28T13:54:47.245Z,1.90
2019-05-28T13:57:15.108Z,1.97
2019-05-28T13:59:43.173Z,2.40
2019-05-28T14:02:10.987Z,2.20
2019-05-28T14:04:38.826Z,2.00
2019-05-28T14:07:06.712Z,1.93
2019-05-28T14:09:34.646Z,2.03
2019-05-28T14:12:02.623Z,2.13
2019-05-28T14:14:30.496Z,2.00
2019-05-28T14:16:58.319Z,1.93
2019-05-28T14:19:26.244Z,1.80
2019-05-28T14:21:54.140Z,1.90
2019-05-28T14:24:22.105Z,1.30
2019-05-28T14:26:50.003Z,1.23
2019-05-28T14:29:18.040Z,1.50
2019-05-28T14:31:45.972Z,1.50
2019-05-28T14:34:13.817Z,1.30
2019-05-28T14:36:41.625Z,1.10
2019-05-28T14:39:09.581Z,1.17
2019-05-28T14:41:37.593Z,1.20
2019-05-28T14:44:05.623Z,1.30
2019-05-28T14:46:33.550Z,1.40
2019-05-28T14:49:01.570Z,1.10
2019-05-28T14:51:29.491Z,1.30
2019-05-28T14:53:57.422Z,1.37
2019-05-28T14:56:25.424Z,1.40
2019-05-28T14:58:53.430Z,1.30
2019-05-28T15:01:22.543Z,1.50
2019-05-28T15:03:50.494Z,1.50
2019-05-28T15:06:18.609Z,1.30
2019-05-28T15:08:46.606Z,1.00
2019-05-28T15:11:14.490Z,1.13
2019-05-28T15:13:42.462Z,1.40
2019-05-28T15:16:10.388Z,1.00
2019-05-28T15:18:38.373Z,1.10
2019-05-28T15:21:06.331Z,1.40
2019-05-28T15:23:34.273Z,1.10
2019-05-28T15:26:02.269Z,1.00
2019-05-28T15:28:31.348Z,1.40
2019-05-28T15:30:59.464Z,1.23
2019-05-28T15:33:27.387Z,1.20
2019-05-28T15:35:56.332Z,1.47
2019-05-28T15:38:24.576Z,1.20
2019-05-28T15:40:52.497Z,1.40
2019-05-28T15:43:20.815Z,1.00
2019-05-28T15:45:48.801Z,1.23
2019-05-28T15:48:16.759Z,1.17
2019-05-28T15:50:44.855Z,0.87
2019-05-28T15:53:12.815Z,1.00
2019-05-28T15:55:40.866Z,1.60
2019-05-28T15:58:12.574Z,0.93
2019-05-28T16:00:38.898Z,0.90
2019-05-28T16:03:06.943Z,0.90
2019-05-28T16:05:34.908Z,1.27
2019-05-28T16:08:02.904Z,1.80
2019-05-28T16:10:30.930Z,1.10
2019-05-28T16:12:58.993Z,1.10
2019-05-28T16:15:26.978Z,0.93
2019-05-28T16:17:54.892Z,1.27
2019-05-28T16:20:22.938Z,1.47
2019-05-28T16:22:50.951Z,1.23
2019-05-28T16:25:19.688Z,1.30
2019-05-28T16:27:47.604Z,1.37
2019-05-28T16:30:18.585Z,1.30
2019-05-28T16:32:46.561Z,1.43
2019-05-28T16:35:19.147Z,1.33
2019-05-28T16:37:47.273Z,1.67
2019-05-28T16:40:16.802Z,1.60
2019-05-28T16:42:45.455Z,1.53
2019-05-28T16:45:17.427Z,1.20
2019-05-28T16:47:45.463Z,1.67
2019-05-28T16:50:14.645Z,1.37
2019-05-28T16:52:42.707Z,1.70
2019-05-28T16:55:14.002Z,1.23
2019-05-28T16:57:42.225Z,1.10
2019-05-28T17:00:10.419Z,1.20
2019-05-28T17:02:38.511Z,1.43
2019-05-28T17:05:07.491Z,1.30
2019-05-28T17:07:35.458Z,1.33
2019-05-28T17:10:04.168Z,1.30
2019-05-28T17:12:32.312Z,1.50
2019-05-28T17:15:00.301Z,1.30
2019-05-28T17:17:28.334Z,1.60
2019-05-28T17:19:56.617Z,1.53
2019-05-28T17:22:24.733Z,1.33
2019-05-28T17:24:52.968Z,1.50
2019-05-28T17:27:22.100Z,1.50
2019-05-28T17:29:50.801Z,1.50
2019-05-28T17:32:19.944Z,1.10
2019-05-28T17:34:47.984Z,1.40
2019-05-28T17:37:16.110Z,1.30
2019-05-28T17:39:44.043Z,1.50
2019-05-28T17:42:11.999Z,1.70
2019-05-28T17:44:39.962Z,1.70
2019-05-28T17:47:07.879Z,1.90
2019-05-28T17:49:36.310Z,1.90
2019-05-28T17:52:05.219Z,1.93
2019-05-28T17:54:33.260Z,2.47
2019-05-28T17:57:02.338Z,1.93
2019-05-28T17:59:30.289Z,2.20
2019-05-28T18:01:58.320Z,2.17
2019-05-28T18:04:26.433Z,1.77
2019-05-28T18:06:54.864Z,1.77
2019-05-28T18:09:23.215Z,1.83
2019-05-28T18:11:51.192Z,1.70
2019-05-28T18:14:19.169Z,2.13
2019-05-28T18:16:47.260Z,2.00
2019-05-28T18:19:15.331Z,1.83
2019-05-28T18:21:43.229Z,2.23
2019-05-28T18:24:11.345Z,2.10
2019-05-28T18:26:39.227Z,2.30
2019-05-28T18:29:07.212Z,1.73
2019-05-28T18:31:35.675Z,2.50
2019-05-28T18:34:03.923Z,3.07
2019-05-28T18:36:44.636Z,2.43
2019-05-28T18:39:12.675Z,2.70
2019-05-28T18:41:40.921Z,2.70
2019-05-28T18:44:10.245Z,3.20
2019-05-28T18:46:38.337Z,8.83
2019-05-28T18:49:06.481Z,4.33
2019-05-28T18:51:38.704Z,3.37
2019-05-28T18:54:05.389Z,3.00
2019-05-28T18:56:33.382Z,3.97
2019-05-28T18:59:01.452Z,3.23
2019-05-28T19:01:29.893Z,3.10
2019-05-28T19:03:57.976Z,3.30
2019-05-28T19:06:26.022Z,3.57
2019-05-28T19:08:54.049Z,3.40
2019-05-28T19:11:36.913Z,3.10
2019-05-28T19:13:52.081Z,3.53
2019-05-28T19:16:20.155Z,2.53
2019-05-28T19:18:48.373Z,3.13
2019-05-28T19:21:16.488Z,2.70
2019-05-28T19:23:44.575Z,3.17
2019-05-28T19:26:12.719Z,7.10
2019-05-28T19:28:42.103Z,4.00
2019-05-28T19:31:10.439Z,3.50
2019-05-28T19:33:38.652Z,3.13
2019-05-28T19:36:07.667Z,3.33
2019-05-28T19:38:44.946Z,4.07
2019-05-28T19:41:06.102Z,3.30
2019-05-28T19:43:34.468Z,3.50
2019-05-28T19:46:02.741Z,3.20
2019-05-28T19:48:30.925Z,3.30
2019-05-28T19:50:59.186Z,3.30
2019-05-28T19:53:27.411Z,3.23
2019-05-28T19:55:55.359Z,3.70
2019-05-28T19:58:23.371Z,3.60
2019-05-28T20:00:51.621Z,4.30
2019-05-28T20:03:19.875Z,3.43
2019-05-28T20:05:47.944Z,4.07
2019-05-28T20:08:15.912Z,3.73
2019-05-28T20:10:43.949Z,7.33
2019-05-28T20:13:12.056Z,5.70
2019-05-28T20:15:40.155Z,3.93
2019-05-28T20:18:08.162Z,4.60
2019-05-28T20:20:38.622Z,5.23
2019-05-28T20:23:06.745Z,4.20
2019-05-28T20:25:34.848Z,5.00
2019-05-28T20:28:02.746Z,4.73
2019-05-28T20:30:30.731Z,3.50
2019-05-28T20:32:59.161Z,3.00
2019-05-28T20:35:30.834Z,2.57
2019-05-28T20:37:57.518Z,2.80
2019-05-28T20:40:25.545Z,3.03
2019-05-28T20:42:53.532Z,3.03
2019-05-28T20:45:21.614Z,2.50
2019-05-28T20:47:49.622Z,2.80
2019-05-28T20:50:18.168Z,2.17
2019-05-28T20:52:46.106Z,2.50
2019-05-28T20:55:14.413Z,2.60
2019-05-28T20:57:42.786Z,2.97
2019-05-28T21:00:12.384Z,3.63
2019-05-28T21:02:40.413Z,3.50
2019-05-28T21:05:09.281Z,3.20
2019-05-28T21:07:37.515Z,3.60
2019-05-28T21:10:06.129Z,3.40
2019-05-28T21:12:43.414Z,4.33
2019-05-28T21:15:05.264Z,3.30
2019-05-28T21:17:33.916Z,2.90
2019-05-28T21:20:01.899Z,3.10
2019-05-28T21:22:30.791Z,3.10
2019-05-28T21:24:59.317Z,3.03
2019-05-28T21:27:28.373Z,2.53
2019-05-28T21:29:56.529Z,2.80
2019-05-28T21:32:24.523Z,2.60
2019-05-28T21:34:56.367Z,2.10
2019-05-28T21:37:22.819Z,2.20
2019-05-28T21:39:51.406Z,2.90
2019-05-28T21:42:19.678Z,2.40
2019-05-28T21:44:47.701Z,2.30
2019-05-28T21:47:16.767Z,2.63
2019-05-28T21:49:48.622Z,2.73
2019-05-28T21:52:17.623Z,2.20
2019-05-28T21:54:45.921Z,3.07
2019-05-28T21:57:13.788Z,2.87
2019-05-28T21:59:41.809Z,2.97
2019-05-28T22:02:10.309Z,2.70
2019-05-28T22:04:38.346Z,2.80
2019-05-28T22:07:06.297Z,3.00
2019-05-28T22:09:34.298Z,2.97
2019-05-28T22:12:03.352Z,2.67
2019-05-28T22:14:32.194Z,2.70
2019-05-28T22:17:02.200Z,2.90
2019-05-28T22:19:30.555Z,3.57
2019-05-28T22:21:58.615Z,3.00
2019-05-28T22:24:26.518Z,3.70
2019-05-28T22:26:54.482Z,3.23
2019-05-28T22:29:22.379Z,3.30
2019-05-28T22:31:50.460Z,3.60
2019-05-28T22:34:19.401Z,3.40
2019-05-28T22:36:47.423Z,3.70
2019-05-28T22:39:16.153Z,3.83
2019-05-28T22:41:44.045Z,3.77
2019-05-28T22:44:11.968Z,3.30
2019-05-28T22:46:39.892Z,3.80
2019-05-28T22:49:07.775Z,3.50
2019-05-28T22:51:35.676Z,3.90
2019-05-28T22:54:04.226Z,3.80
2019-05-28T22:56:32.180Z,3.77
2019-05-28T22:59:00.345Z,3.70
2019-05-28T23:01:28.273Z,4.40
2019-05-28T23:03:56.204Z,3.67
2019-05-28T23:06:24.104Z,3.93
2019-05-28T23:08:52.116Z,3.70
2019-05-28T23:11:21.279Z,3.90
2019-05-28T23:13:49.330Z,3.90
2019-05-28T23:16:19.236Z,4.07
2019-05-28T23:18:47.191Z,4.37
2019-05-28T23:21:16.249Z,3.77
2019-05-28T23:23:44.285Z,4.57
2019-05-28T23:26:12.285Z,4.63
2019-05-28T23:28:40.383Z,4.67
2019-05-28T23:31:08.394Z,5.03
2019-05-28T23:33:36.386Z,4.20
2019-05-28T23:36:04.507Z,4.70
2019-05-28T23:38:32.358Z,4.60
2019-05-28T23:41:00.235Z,4.10
2019-05-28T23:43:28.120Z,4.40
2019-05-28T23:45:56.015Z,3.90
2019-05-28T23:48:23.927Z,4.70
2019-05-28T23:50:51.859Z,4.10
2019-05-28T23:53:19.768Z,4.30
2019-05-28T23:55:47.658Z,4.30
2019-05-28T23:58:15.614Z,4.40
